KEAR

Kearney Regional Airport

Airport
ICAO code
KEAR
IATA Code
EAR
Summary
ICAO Region
NAM
ICAO Territory
Location

Kearney, Nebraska

Serving
Kearney
Elevation
2131 ft
Coordinates
40° 43' 32" N , 99° 0' 31" W
KCC
Metar
KEAR 191056Z AUTO 11003KT 10SM OVC100 03/01 A3026 RMK AO2 SLP254 T00280006

Kearney Regional Airport is a public use airport located 5 nm northeast of the central business district of Kearney, a city in Buffalo County, Nebraska, USA.

Airport map

Aerial View

SKYbrary Partners:

Safety knowledge contributed by: